logo
Search for airport 
image banner adimage banner adimage banner ad
image banner ad

MMSQA - San Pedro De La Cueva

Located in San Pedro De La Cueva, Mexico

ICAO - , IATA -

Data provided by Airmate  

General information

Coordinates: N29°17'19" W109°45'2"
Elevation is 1207 feet MSL.
Magnetic variation is 8° East
View others Airports in Sonora

Operational data

Special qualification required
Current time UTC:
Current local time:
Weather at : - ( 0 km )
METAR: ZMCK 180730Z 32009G14MPS 9999 FEW033 09/M15 Q1019 NOSIG
View NOTAMs / SUP AIP / TFR affecting this airport [VIEW]
Communications frequencies: [VIEW]

Runways:

RWY identifierQFULength (ft)Width (ft)SurfaceLDA (ft)
34352°419450CONC
16172°419450CONC

Airport contact information

Address: San Pedro De La Cueva Mexico

Satellite view of MMSQA